createdAt,value
2022-10-17T00:00:02.731Z,3.45
2022-10-17T00:02:04.442Z,2.50
2022-10-17T00:04:06.114Z,2.67
2022-10-17T00:06:12.738Z,2.50
2022-10-17T00:08:16.210Z,2.30
2022-10-17T00:10:18.029Z,2.25
2022-10-17T00:12:19.837Z,2.55
2022-10-17T00:14:21.488Z,2.53
2022-10-17T00:16:25.764Z,2.88
2022-10-17T00:18:27.474Z,2.38
2022-10-17T00:20:30.592Z,2.63
2022-10-17T00:22:32.327Z,2.10
2022-10-17T00:24:34.070Z,2.40
2022-10-17T00:26:35.728Z,2.08
2022-10-17T00:28:37.428Z,1.90
2022-10-17T00:30:39.483Z,1.90
2022-10-17T00:32:41.470Z,1.83
2022-10-17T00:34:43.169Z,1.75
2022-10-17T00:36:44.912Z,1.85
2022-10-17T00:38:49.855Z,1.60
2022-10-17T00:40:51.625Z,1.67
2022-10-17T00:42:53.359Z,1.67
2022-10-17T00:45:03.537Z,1.88
2022-10-17T00:47:07.624Z,1.60
2022-10-17T00:49:12.563Z,1.58
2022-10-17T00:51:14.835Z,1.67
2022-10-17T00:53:18.678Z,1.40
2022-10-17T00:55:25.396Z,1.75
2022-10-17T00:57:31.167Z,1.90
2022-10-17T00:59:39.535Z,1.80
2022-10-17T01:01:54.176Z,1.67
2022-10-17T01:03:55.837Z,1.50
2022-10-17T01:05:57.587Z,2.55
2022-10-17T01:07:59.570Z,2.10
2022-10-17T01:10:01.619Z,1.55
2022-10-17T01:12:39.677Z,1.50
2022-10-17T01:14:50.220Z,1.42
2022-10-17T01:17:05.642Z,1.42
2022-10-17T01:19:28.284Z,1.60
2022-10-17T01:21:48.042Z,1.45
2022-10-17T01:24:08.519Z,1.63
2022-10-17T01:26:25.111Z,1.27
2022-10-17T01:28:54.561Z,1.73
2022-10-17T01:30:56.187Z,1.25
2022-10-17T01:33:03.847Z,1.05
2022-10-17T01:35:05.528Z,1.45
2022-10-17T01:37:14.987Z,1.42
2022-10-17T01:39:30.072Z,1.67
2022-10-17T01:41:49.852Z,1.38
2022-10-17T01:43:59.032Z,1.45
2022-10-17T01:46:18.337Z,1.70
2022-10-17T01:48:25.424Z,1.52
2022-10-17T01:50:36.326Z,1.13
2022-10-17T01:52:51.024Z,1.15
2022-10-17T01:55:03.398Z,1.60
2022-10-17T01:57:10.489Z,1.38
2022-10-17T01:59:24.211Z,0.93
2022-10-17T02:01:28.504Z,1.25
2022-10-17T02:03:37.662Z,1.70
2022-10-17T02:05:41.512Z,1.52
2022-10-17T02:07:43.314Z,1.20
2022-10-17T02:09:44.992Z,1.27
2022-10-17T02:12:01.246Z,2.15
2022-10-17T02:14:38.201Z,1.10
2022-10-17T02:17:24.805Z,1.30
2022-10-17T02:19:57.489Z,1.45
2022-10-17T02:22:22.790Z,1.13
2022-10-17T02:24:58.371Z,1.58
2022-10-17T02:27:09.490Z,1.05
2022-10-17T02:29:19.545Z,0.85
2022-10-17T02:31:26.974Z,1.00
2022-10-17T02:33:39.658Z,1.08
2022-10-17T02:35:46.445Z,2.33
2022-10-17T02:37:50.739Z,0.90
2022-10-17T02:39:54.757Z,1.10
2022-10-17T02:41:58.993Z,1.17
2022-10-17T02:44:03.841Z,1.20
2022-10-17T02:46:08.027Z,0.98
2022-10-17T02:48:28.277Z,1.20
2022-10-17T02:50:42.959Z,1.27
2022-10-17T02:52:51.670Z,1.55
2022-10-17T02:55:10.094Z,1.42
2022-10-17T02:57:42.121Z,1.30
2022-10-17T02:59:45.738Z,1.23
2022-10-17T03:01:48.268Z,1.65
2022-10-17T03:03:50.035Z,1.50
2022-10-17T03:05:52.353Z,1.70
2022-10-17T03:07:55.359Z,1.30
2022-10-17T03:09:57.037Z,1.63
2022-10-17T03:11:58.816Z,1.10
2022-10-17T03:14:00.511Z,1.30
2022-10-17T03:16:02.199Z,1.38
2022-10-17T03:18:04.143Z,1.35
2022-10-17T03:20:06.964Z,1.13
2022-10-17T03:22:08.644Z,1.20
2022-10-17T03:24:10.431Z,1.45
2022-10-17T03:26:12.491Z,1.02
2022-10-17T03:28:14.178Z,1.13
2022-10-17T03:30:15.949Z,1.20
2022-10-17T03:32:17.678Z,1.15
2022-10-17T03:34:19.370Z,1.15
2022-10-17T03:36:21.267Z,1.40
2022-10-17T03:38:23.840Z,1.67
2022-10-17T03:40:25.538Z,1.60
2022-10-17T03:42:27.234Z,1.55
2022-10-17T03:44:28.993Z,1.45
2022-10-17T03:46:30.782Z,1.80
2022-10-17T03:48:33.252Z,1.05
2022-10-17T03:50:34.946Z,1.38
2022-10-17T03:52:36.654Z,1.25
2022-10-17T03:54:38.340Z,1.27
2022-10-17T03:56:40.002Z,1.08
2022-10-17T03:58:42.614Z,1.40
2022-10-17T04:00:44.572Z,0.95
2022-10-17T04:02:46.224Z,1.60
2022-10-17T04:04:47.939Z,1.30
2022-10-17T04:06:49.568Z,1.20
2022-10-17T04:08:51.352Z,1.50
2022-10-17T04:10:53.354Z,1.10
2022-10-17T04:12:55.089Z,1.20
2022-10-17T04:14:56.777Z,1.30
2022-10-17T04:16:58.666Z,1.23
2022-10-17T04:19:01.229Z,1.00
2022-10-17T04:21:04.294Z,1.38
2022-10-17T04:23:06.027Z,1.33
2022-10-17T04:25:07.868Z,2.00
2022-10-17T04:27:09.557Z,1.08
2022-10-17T04:29:11.347Z,0.95
2022-10-17T04:31:14.687Z,1.45
2022-10-17T04:33:25.769Z,1.65
2022-10-17T04:35:27.541Z,1.10
2022-10-17T04:37:30.338Z,1.10
2022-10-17T04:39:32.056Z,1.27
2022-10-17T04:41:33.765Z,1.15
2022-10-17T04:43:37.957Z,1.30
2022-10-17T04:45:39.590Z,1.42
2022-10-17T04:47:41.241Z,1.00
2022-10-17T04:49:43.047Z,1.42
2022-10-17T04:51:44.734Z,0.98
2022-10-17T04:53:46.707Z,1.55
2022-10-17T04:55:48.520Z,1.17
2022-10-17T04:57:50.159Z,1.10
2022-10-17T04:59:51.780Z,0.90
2022-10-17T05:01:53.492Z,1.10
2022-10-17T05:03:56.068Z,1.17
2022-10-17T05:05:57.723Z,1.30
2022-10-17T05:07:59.479Z,1.40
2022-10-17T05:10:01.128Z,1.30
2022-10-17T05:12:04.386Z,1.10
2022-10-17T05:14:08.415Z,0.70
2022-10-17T05:16:10.941Z,1.00
2022-10-17T05:18:12.595Z,1.10
2022-10-17T05:20:14.377Z,1.00
2022-10-17T05:22:16.109Z,0.90
2022-10-17T05:24:17.946Z,1.02
2022-10-17T05:26:20.088Z,1.13
2022-10-17T05:28:22.957Z,1.30
2022-10-17T05:30:24.877Z,1.45
2022-10-17T05:32:26.935Z,1.38
2022-10-17T05:34:28.816Z,1.83
2022-10-17T05:36:30.870Z,1.20
2022-10-17T05:38:32.807Z,0.95
2022-10-17T05:40:35.001Z,1.17
2022-10-17T05:42:37.221Z,0.95
2022-10-17T05:44:39.848Z,1.45
2022-10-17T05:46:41.517Z,1.38
2022-10-17T05:48:44.117Z,0.98
2022-10-17T05:50:45.805Z,1.00
2022-10-17T05:52:47.515Z,0.93
2022-10-17T05:54:49.267Z,1.38
2022-10-17T05:56:55.559Z,1.05
2022-10-17T05:59:00.689Z,1.30
2022-10-17T06:01:07.159Z,1.80
2022-10-17T06:03:12.578Z,1.63
2022-10-17T06:05:15.172Z,0.98
2022-10-17T06:07:16.919Z,0.95
2022-10-17T06:09:18.600Z,1.25
2022-10-17T06:11:20.248Z,0.98
2022-10-17T06:13:31.830Z,1.02
2022-10-17T06:15:33.535Z,0.70
2022-10-17T06:17:35.816Z,0.90
2022-10-17T06:19:37.508Z,0.75
2022-10-17T06:21:39.372Z,1.02
2022-10-17T06:23:41.077Z,0.70
2022-10-17T06:25:43.011Z,0.80
2022-10-17T06:27:45.059Z,0.88
2022-10-17T06:29:47.944Z,0.68
2022-10-17T06:31:49.610Z,0.70
2022-10-17T06:33:51.352Z,1.75
2022-10-17T06:35:54.627Z,1.52
2022-10-17T06:37:56.351Z,0.77
2022-10-17T06:39:58.046Z,0.77
2022-10-17T06:42:01.198Z,1.08
2022-10-17T06:44:08.499Z,0.80
2022-10-17T06:46:14.112Z,1.10
2022-10-17T06:48:15.888Z,0.95
2022-10-17T06:50:17.627Z,1.52
2022-10-17T06:52:19.499Z,1.25
2022-10-17T06:54:21.530Z,0.98
2022-10-17T06:56:23.284Z,1.20
2022-10-17T06:58:24.979Z,1.02
2022-10-17T07:00:26.963Z,1.70
2022-10-17T07:02:28.981Z,0.93
2022-10-17T07:04:31.045Z,1.20
2022-10-17T07:06:32.811Z,0.63
2022-10-17T07:08:34.562Z,0.63
2022-10-17T07:10:38.609Z,0.77
2022-10-17T07:12:41.871Z,0.73
2022-10-17T07:14:43.536Z,1.25
2022-10-17T07:16:45.521Z,0.65
2022-10-17T07:18:50.209Z,1.30
2022-10-17T07:20:55.365Z,1.15
2022-10-17T07:22:57.208Z,1.00
2022-10-17T07:24:58.897Z,0.90
2022-10-17T07:27:00.586Z,1.23
2022-10-17T07:29:02.523Z,1.02
2022-10-17T07:31:07.122Z,0.75
2022-10-17T07:33:08.853Z,0.95
2022-10-17T07:35:11.808Z,0.88
2022-10-17T07:37:13.584Z,0.80
2022-10-17T07:39:15.390Z,0.80
2022-10-17T07:41:19.464Z,0.90
2022-10-17T07:43:27.956Z,0.88
2022-10-17T07:45:29.744Z,0.63
2022-10-17T07:47:33.358Z,0.77
2022-10-17T07:49:35.179Z,0.93
2022-10-17T07:51:37.884Z,1.00
2022-10-17T07:53:41.796Z,0.90
2022-10-17T07:55:46.563Z,1.05
2022-10-17T07:57:48.678Z,0.90
2022-10-17T07:59:51.500Z,1.38
2022-10-17T08:01:56.205Z,0.80
2022-10-17T08:03:57.992Z,0.50
2022-10-17T08:06:01.367Z,0.82
2022-10-17T08:08:03.063Z,0.70
2022-10-17T08:10:05.366Z,1.38
2022-10-17T08:12:07.489Z,0.68
2022-10-17T08:14:09.144Z,0.77
2022-10-17T08:16:13.267Z,0.90
2022-10-17T08:18:16.065Z,0.88
2022-10-17T08:20:18.142Z,0.65
2022-10-17T08:22:19.809Z,0.70
2022-10-17T08:24:21.656Z,0.80
2022-10-17T08:26:23.444Z,0.85
2022-10-17T08:28:25.150Z,0.98
2022-10-17T08:30:26.861Z,1.10
2022-10-17T08:32:29.795Z,0.85
2022-10-17T08:34:31.931Z,1.17
2022-10-17T08:36:33.916Z,1.33
2022-10-17T08:38:38.481Z,1.65
2022-10-17T08:40:43.244Z,0.85
2022-10-17T08:43:35.216Z,1.00
2022-10-17T08:45:48.756Z,0.98
2022-10-17T08:48:00.569Z,0.75
2022-10-17T08:50:11.915Z,1.10
2022-10-17T08:52:30.022Z,1.20
2022-10-17T08:54:42.076Z,0.90
2022-10-17T08:56:49.772Z,0.60
2022-10-17T08:58:52.401Z,1.52
2022-10-17T09:01:02.387Z,0.80
2022-10-17T09:03:40.822Z,1.20
2022-10-17T09:06:05.523Z,1.10
2022-10-17T09:08:35.799Z,1.15
2022-10-17T09:10:46.796Z,1.13
2022-10-17T09:13:10.426Z,1.45
2022-10-17T09:15:30.209Z,1.20
2022-10-17T09:17:52.746Z,1.20
2022-10-17T09:20:26.672Z,1.52
2022-10-17T09:22:34.960Z,1.50
2022-10-17T09:24:55.640Z,1.10
2022-10-17T09:26:57.425Z,0.90
2022-10-17T09:29:01.230Z,1.30
2022-10-17T09:31:12.954Z,1.40
2022-10-17T09:33:53.360Z,0.60
2022-10-17T09:35:49.605Z,1.88
2022-10-17T09:37:51.950Z,1.70
2022-10-17T09:40:01.121Z,1.15
2022-10-17T09:42:20.761Z,1.33
2022-10-17T09:44:39.245Z,1.08
2022-10-17T09:46:53.770Z,1.48
2022-10-17T09:49:03.510Z,1.40
2022-10-17T09:51:22.047Z,1.00
2022-10-17T09:53:39.061Z,1.75
2022-10-17T09:55:57.364Z,1.88
2022-10-17T09:58:02.628Z,2.53
2022-10-17T10:00:06.626Z,2.22
2022-10-17T10:02:23.167Z,1.63
2022-10-17T10:04:30.561Z,1.35
2022-10-17T10:06:40.229Z,2.55
2022-10-17T10:08:52.995Z,1.00
2022-10-17T10:11:04.589Z,1.33
2022-10-17T10:13:39.106Z,1.80
2022-10-17T10:15:44.163Z,2.30
2022-10-17T10:17:46.151Z,1.85
2022-10-17T10:19:52.448Z,0.93
2022-10-17T10:22:06.285Z,1.63
2022-10-17T10:24:10.835Z,1.17
2022-10-17T10:26:25.939Z,1.70
2022-10-17T10:28:31.856Z,1.30
2022-10-17T10:30:36.208Z,1.88
2022-10-17T10:32:40.930Z,2.40
2022-10-17T10:34:57.854Z,1.63
2022-10-17T10:37:06.005Z,1.17
2022-10-17T10:39:23.082Z,1.80
2022-10-17T10:41:33.552Z,1.10
2022-10-17T10:45:51.544Z,1.25
2022-10-17T10:47:59.065Z,1.23
2022-10-17T10:50:17.318Z,1.00
2022-10-17T10:52:39.831Z,1.55
2022-10-17T10:54:51.497Z,1.75
2022-10-17T10:56:55.621Z,2.50
2022-10-17T10:59:12.728Z,1.05
2022-10-17T11:01:40.767Z,1.17
2022-10-17T11:04:07.256Z,1.67
2022-10-17T11:06:23.133Z,1.38
2022-10-17T11:08:35.242Z,1.23
2022-10-17T11:11:06.160Z,1.48
2022-10-17T11:15:52.092Z,0.98
2022-10-17T11:18:13.640Z,1.05
2022-10-17T11:20:29.924Z,0.95
2022-10-17T11:22:36.627Z,1.80
2022-10-17T11:24:57.340Z,1.38
2022-10-17T11:27:05.046Z,1.52
2022-10-17T11:29:09.235Z,1.40
2022-10-17T11:31:13.680Z,1.83
2022-10-17T11:33:57.999Z,1.55
2022-10-17T11:36:05.985Z,1.23
2022-10-17T11:38:21.516Z,1.48
2022-10-17T11:40:33.314Z,1.60
2022-10-17T11:42:44.511Z,2.65
2022-10-17T11:45:08.960Z,2.20
2022-10-17T11:47:28.791Z,1.55
2022-10-17T11:49:40.548Z,1.42
2022-10-17T11:52:00.799Z,1.73
2022-10-17T11:54:11.902Z,1.50
2022-10-17T11:56:17.358Z,1.33
2022-10-17T11:58:26.789Z,2.00
2022-10-17T12:00:46.184Z,1.52
2022-10-17T12:03:17.819Z,1.10
2022-10-17T12:05:26.094Z,1.35
2022-10-17T12:09:59.136Z,1.20
2022-10-17T12:12:02.853Z,1.42
2022-10-17T12:14:33.381Z,1.10
2022-10-17T12:16:35.028Z,1.20
2022-10-17T12:18:36.930Z,1.23
2022-10-17T12:20:39.998Z,1.83
2022-10-17T12:22:47.986Z,0.75
2022-10-17T12:24:55.615Z,1.50
2022-10-17T12:26:57.398Z,1.05
2022-10-17T12:28:59.469Z,1.00
2022-10-17T12:31:10.187Z,1.15
2022-10-17T12:35:52.269Z,1.60
2022-10-17T12:37:57.394Z,1.10
2022-10-17T12:40:01.032Z,1.40
2022-10-17T12:42:02.720Z,1.00
2022-10-17T12:44:13.581Z,0.90
2022-10-17T12:46:46.690Z,1.20
2022-10-17T12:49:01.513Z,1.20
2022-10-17T12:53:46.873Z,0.90
2022-10-17T12:55:51.869Z,1.20
2022-10-17T12:58:01.727Z,1.00
2022-10-17T13:00:31.508Z,0.60
2022-10-17T13:02:33.817Z,1.05
2022-10-17T13:04:37.178Z,1.77
2022-10-17T13:06:45.854Z,1.00
2022-10-17T13:08:56.094Z,0.95
2022-10-17T13:11:00.478Z,1.58
2022-10-17T13:13:08.486Z,1.13
2022-10-17T13:15:16.537Z,1.60
2022-10-17T13:17:27.937Z,1.10
2022-10-17T13:19:42.953Z,1.98
2022-10-17T13:21:59.736Z,1.08
2022-10-17T13:24:28.588Z,0.93
2022-10-17T13:26:30.215Z,1.02
2022-10-17T13:28:34.802Z,1.63
2022-10-17T13:30:38.926Z,1.23
2022-10-17T13:32:42.016Z,1.40
2022-10-17T13:34:43.822Z,1.50
2022-10-17T13:36:50.794Z,1.58
2022-10-17T13:38:52.957Z,0.98
2022-10-17T13:41:01.626Z,1.17
2022-10-17T13:43:06.054Z,1.20
2022-10-17T13:45:32.962Z,1.13
2022-10-17T13:47:39.007Z,1.02
2022-10-17T13:49:44.297Z,0.80
2022-10-17T13:51:48.901Z,0.85
2022-10-17T13:53:50.737Z,1.42
2022-10-17T13:56:15.748Z,0.82
2022-10-17T13:58:18.279Z,1.00
2022-10-17T14:00:23.032Z,0.90
2022-10-17T14:02:27.885Z,0.77
2022-10-17T14:04:40.044Z,0.85
2022-10-17T14:06:52.379Z,1.63
2022-10-17T14:09:07.532Z,0.77
2022-10-17T14:11:23.507Z,0.93
2022-10-17T14:13:35.937Z,1.48
2022-10-17T14:15:37.865Z,0.80
2022-10-17T14:17:39.983Z,0.80
2022-10-17T14:19:41.654Z,1.00
2022-10-17T14:21:48.683Z,0.95
2022-10-17T14:23:51.647Z,0.98
2022-10-17T14:26:12.702Z,0.93
2022-10-17T14:28:15.948Z,0.80
2022-10-17T14:30:51.578Z,1.00
2022-10-17T14:32:50.352Z,0.88
2022-10-17T14:35:05.519Z,0.90
2022-10-17T14:37:28.705Z,1.02
2022-10-17T14:39:30.822Z,1.60
2022-10-17T14:41:44.217Z,0.82
2022-10-17T14:44:02.946Z,0.98
2022-10-17T14:46:05.694Z,0.88
2022-10-17T14:48:21.838Z,1.20
2022-10-17T14:50:29.430Z,1.10
2022-10-17T14:52:32.650Z,1.10
2022-10-17T14:54:36.139Z,1.00
2022-10-17T14:56:41.569Z,2.03
2022-10-17T14:58:43.262Z,1.15
2022-10-17T15:00:44.934Z,1.67
2022-10-17T15:02:48.098Z,1.20
2022-10-17T15:04:49.741Z,1.20
2022-10-17T15:06:55.286Z,1.13
2022-10-17T15:08:57.716Z,0.70
2022-10-17T15:10:59.441Z,0.90
2022-10-17T15:13:26.701Z,1.30
2022-10-17T15:15:23.778Z,1.02
2022-10-17T15:17:31.231Z,1.73
2022-10-17T15:19:32.920Z,0.88
2022-10-17T15:21:39.614Z,0.82
2022-10-17T15:23:45.267Z,0.70
2022-10-17T15:25:46.938Z,0.68
2022-10-17T15:27:48.784Z,0.98
2022-10-17T15:29:52.909Z,0.95
2022-10-17T15:31:54.534Z,0.60
2022-10-17T15:33:56.737Z,1.20
2022-10-17T15:38:09.028Z,1.38
2022-10-17T15:40:16.020Z,1.38
2022-10-17T15:42:17.635Z,1.33
2022-10-17T15:44:19.321Z,1.30
2022-10-17T15:46:33.853Z,1.27
2022-10-17T15:48:35.727Z,0.93
2022-10-17T15:50:37.403Z,0.85
2022-10-17T15:52:39.061Z,0.80
2022-10-17T15:54:40.892Z,0.75
2022-10-17T15:56:46.768Z,1.48
2022-10-17T15:58:49.402Z,1.02
2022-10-17T16:00:51.493Z,1.45
2022-10-17T16:02:53.387Z,1.08
2022-10-17T16:04:55.063Z,0.90
2022-10-17T16:06:56.771Z,1.52
2022-10-17T16:08:58.489Z,1.05
2022-10-17T16:11:00.163Z,0.90
2022-10-17T16:13:01.806Z,0.73
2022-10-17T16:15:04.060Z,0.98
2022-10-17T16:17:05.731Z,1.48
2022-10-17T16:19:07.940Z,1.23
2022-10-17T16:21:14.007Z,0.90
2022-10-17T16:23:15.727Z,1.10
2022-10-17T16:25:22.163Z,1.45
2022-10-17T16:27:23.889Z,1.50
2022-10-17T16:29:25.588Z,1.38
2022-10-17T16:31:30.391Z,1.40
2022-10-17T16:33:32.858Z,0.98
2022-10-17T16:35:37.479Z,1.10
2022-10-17T16:37:39.468Z,1.23
2022-10-17T16:39:41.230Z,1.58
2022-10-17T16:41:42.988Z,1.25
2022-10-17T16:43:44.634Z,1.30
2022-10-17T16:45:46.381Z,1.40
2022-10-17T16:47:48.691Z,1.23
2022-10-17T16:49:50.310Z,2.55
2022-10-17T16:51:52.023Z,1.80
2022-10-17T16:53:56.441Z,1.90
2022-10-17T16:56:02.731Z,1.48
2022-10-17T16:58:04.524Z,3.35
2022-10-17T17:00:07.219Z,1.90
2022-10-17T17:02:11.665Z,2.25
2022-10-17T17:04:13.677Z,1.27
2022-10-17T17:06:21.645Z,1.40
2022-10-17T17:08:23.324Z,1.60
2022-10-17T17:10:24.959Z,1.25
2022-10-17T17:12:26.597Z,1.45
2022-10-17T17:14:28.346Z,1.38
2022-10-17T17:16:31.977Z,1.85
2022-10-17T17:18:34.707Z,1.30
2022-10-17T17:20:36.362Z,1.20
2022-10-17T17:22:38.051Z,1.55
2022-10-17T17:24:39.780Z,1.90
2022-10-17T17:26:41.700Z,1.15
2022-10-17T17:28:44.274Z,1.33
2022-10-17T17:30:45.936Z,1.10
2022-10-17T17:32:47.680Z,1.35
2022-10-17T17:34:49.309Z,1.02
2022-10-17T17:36:51.006Z,1.42
2022-10-17T17:38:56.214Z,1.20
2022-10-17T17:40:58.184Z,1.90
2022-10-17T17:45:03.384Z,1.23
2022-10-17T17:47:05.242Z,1.25
2022-10-17T17:49:06.964Z,1.70
2022-10-17T17:51:10.789Z,1.10
2022-10-17T17:53:15.158Z,1.30
2022-10-17T17:55:16.930Z,1.75
2022-10-17T17:57:18.725Z,1.15
2022-10-17T17:59:20.445Z,1.55
2022-10-17T18:01:24.115Z,1.50
2022-10-17T18:03:31.968Z,1.70
2022-10-17T18:05:33.710Z,2.28
2022-10-17T18:07:38.218Z,1.30
2022-10-17T18:09:39.942Z,1.30
2022-10-17T18:11:42.056Z,0.93
2022-10-17T18:13:43.841Z,1.20
2022-10-17T18:15:46.512Z,1.52
2022-10-17T18:17:48.244Z,1.17
2022-10-17T18:19:49.922Z,1.13
2022-10-17T18:21:51.564Z,0.82
2022-10-17T18:23:53.550Z,1.20
2022-10-17T18:26:02.937Z,1.88
2022-10-17T18:28:04.819Z,1.98
2022-10-17T18:30:08.618Z,1.92
2022-10-17T18:32:10.499Z,2.70
2022-10-17T18:34:12.157Z,2.00
2022-10-17T18:36:15.345Z,1.80
2022-10-17T18:38:17.042Z,2.13
2022-10-17T18:40:18.717Z,1.83
2022-10-17T18:42:20.603Z,1.38
2022-10-17T18:44:22.282Z,1.83
2022-10-17T18:46:41.062Z,1.88
2022-10-17T18:48:44.813Z,2.33
2022-10-17T18:50:47.112Z,2.55
2022-10-17T18:52:49.700Z,2.20
2022-10-17T18:54:52.614Z,1.67
2022-10-17T18:56:55.384Z,1.60
2022-10-17T18:58:57.735Z,1.65
2022-10-17T19:01:16.818Z,2.15
2022-10-17T19:03:19.148Z,2.20
2022-10-17T19:05:20.882Z,2.60
2022-10-17T19:07:22.520Z,2.88
2022-10-17T19:09:24.330Z,2.08
2022-10-17T19:11:28.035Z,1.80
2022-10-17T19:13:33.820Z,2.30
2022-10-17T19:15:36.003Z,2.65
2022-10-17T19:17:37.698Z,2.67
2022-10-17T19:19:39.434Z,1.48
2022-10-17T19:21:41.587Z,1.80
2022-10-17T19:23:43.435Z,1.73
2022-10-17T19:25:45.238Z,2.38
2022-10-17T19:27:46.948Z,2.00
2022-10-17T19:29:48.592Z,2.58
2022-10-17T19:31:50.449Z,2.22
2022-10-17T19:33:52.958Z,2.33
2022-10-17T19:36:16.740Z,2.00
2022-10-17T19:38:18.493Z,2.10
2022-10-17T19:40:20.391Z,1.48
2022-10-17T19:42:22.134Z,1.67
2022-10-17T19:44:23.964Z,1.40
2022-10-17T19:46:27.095Z,1.52
2022-10-17T19:48:32.074Z,1.55
2022-10-17T19:50:35.703Z,1.98
2022-10-17T19:52:39.598Z,1.48
2022-10-17T19:54:41.304Z,1.45
2022-10-17T19:56:43.549Z,1.77
2022-10-17T19:58:47.059Z,1.77
2022-10-17T20:00:55.001Z,1.75
2022-10-17T20:02:56.647Z,1.65
2022-10-17T20:05:13.826Z,1.60
2022-10-17T20:07:19.921Z,1.75
2022-10-17T20:09:22.069Z,1.85
2022-10-17T20:11:29.074Z,1.42
2022-10-17T20:13:33.127Z,2.00
2022-10-17T20:15:35.076Z,1.63
2022-10-17T20:17:36.716Z,1.70
2022-10-17T20:19:38.600Z,1.80
2022-10-17T20:21:40.547Z,2.08
2022-10-17T20:23:43.359Z,1.52
2022-10-17T20:25:45.313Z,1.50
2022-10-17T20:27:47.176Z,1.70
2022-10-17T20:29:48.919Z,2.13
2022-10-17T20:31:50.648Z,1.48
2022-10-17T20:33:59.302Z,1.67
2022-10-17T20:36:06.060Z,1.80
2022-10-17T20:38:07.725Z,1.73
2022-10-17T20:40:33.739Z,2.35
2022-10-17T20:42:31.672Z,2.70
2022-10-17T20:44:47.092Z,1.52
2022-10-17T20:47:01.205Z,1.80
2022-10-17T20:49:07.939Z,1.38
2022-10-17T20:51:11.003Z,1.60
2022-10-17T20:53:42.645Z,1.65
2022-10-17T20:55:34.447Z,1.75
2022-10-17T20:57:36.079Z,1.92
2022-10-17T20:59:38.172Z,1.92
2022-10-17T21:01:40.104Z,2.28
2022-10-17T21:03:45.450Z,2.20
2022-10-17T21:05:48.181Z,1.92
2022-10-17T21:07:49.989Z,2.17
2022-10-17T21:09:51.661Z,1.80
2022-10-17T21:11:55.753Z,1.80
2022-10-17T21:14:01.417Z,2.25
2022-10-17T21:16:13.361Z,2.53
2022-10-17T21:18:15.003Z,1.95
2022-10-17T21:20:16.898Z,1.67
2022-10-17T21:22:19.874Z,1.65
2022-10-17T21:24:21.658Z,2.50
2022-10-17T21:26:23.940Z,2.00
2022-10-17T21:28:25.636Z,1.98
2022-10-17T21:30:27.356Z,2.00
2022-10-17T21:32:40.222Z,1.48
2022-10-17T21:34:49.103Z,1.57
2022-10-17T21:36:51.428Z,1.88
2022-10-17T21:38:54.762Z,1.80
2022-10-17T21:40:56.812Z,1.95
2022-10-17T21:42:58.441Z,1.48
2022-10-17T21:45:00.264Z,2.03
2022-10-17T21:47:02.597Z,2.47
2022-10-17T21:49:04.424Z,2.03
2022-10-17T21:51:08.575Z,2.33
2022-10-17T21:53:10.219Z,1.60
2022-10-17T21:55:11.861Z,2.17
2022-10-17T21:57:13.552Z,1.92
2022-10-17T21:59:15.551Z,1.77
2022-10-17T22:01:20.628Z,1.85
2022-10-17T22:03:33.015Z,2.72
2022-10-17T22:05:34.660Z,2.92
2022-10-17T22:07:36.358Z,3.60
2022-10-17T22:09:38.032Z,2.83
2022-10-17T22:11:40.368Z,2.67
2022-10-17T22:13:42.273Z,2.10
2022-10-17T22:15:43.954Z,2.08
2022-10-17T22:17:45.678Z,1.80
2022-10-17T22:19:47.593Z,1.83
2022-10-17T22:21:49.789Z,2.17
2022-10-17T22:23:57.294Z,2.70
2022-10-17T22:25:59.732Z,2.00
2022-10-17T22:28:01.992Z,2.05
2022-10-17T22:30:04.636Z,1.52
2022-10-17T22:32:06.346Z,2.38
2022-10-17T22:34:08.449Z,2.13
2022-10-17T22:36:10.829Z,2.40
2022-10-17T22:38:12.814Z,2.47
2022-10-17T22:40:14.685Z,2.28
2022-10-17T22:42:16.376Z,3.13
2022-10-17T22:44:18.063Z,2.42
2022-10-17T22:46:19.767Z,3.05
2022-10-17T22:48:22.082Z,2.33
2022-10-17T22:50:24.160Z,2.97
2022-10-17T22:52:25.792Z,2.30
2022-10-17T22:54:27.531Z,2.50
2022-10-17T22:56:29.210Z,2.10
2022-10-17T22:58:32.178Z,2.72
2022-10-17T23:00:33.840Z,3.30
2022-10-17T23:02:35.834Z,2.33
2022-10-17T23:04:37.496Z,2.85
2022-10-17T23:06:39.231Z,2.45
2022-10-17T23:08:41.259Z,3.15
2022-10-17T23:10:43.349Z,2.15
2022-10-17T23:12:45.038Z,3.03
2022-10-17T23:14:46.755Z,2.30
2022-10-17T23:16:48.370Z,2.38
2022-10-17T23:18:50.001Z,2.38
2022-10-17T23:20:52.339Z,2.67
2022-10-17T23:22:53.979Z,3.20
2022-10-17T23:24:55.674Z,2.55
2022-10-17T23:26:57.480Z,1.90
2022-10-17T23:28:59.480Z,4.00
2022-10-17T23:31:20.164Z,2.72
2022-10-17T23:33:31.839Z,2.08
2022-10-17T23:35:34.444Z,2.80
2022-10-17T23:37:37.004Z,2.40
2022-10-17T23:39:38.704Z,2.08
2022-10-17T23:41:40.551Z,2.58
2022-10-17T23:43:43.331Z,2.55
2022-10-17T23:45:45.007Z,3.05
2022-10-17T23:47:46.814Z,2.88
2022-10-17T23:49:48.458Z,2.70
2022-10-17T23:51:50.151Z,2.50
2022-10-17T23:53:51.770Z,3.28
2022-10-17T23:55:53.714Z,2.58
2022-10-17T23:57:55.403Z,2.92
2022-10-17T23:59:57.121Z,2.67
